Terminal Aerodrome Forecast
Issued by NWS

Current Version | Previous Version | Graphics & Text | Print | Product List | Glossary On
Versions: 1 2 3 4 5 6 7 8 9 10 11 12 13 14 15 16 17 18
000
FTUS41 KPBZ 182320
TAFHLG
TAF
KHLG 182320Z 1900/1924 VRB05KT P6SM OVC050
     FM190400 09007KT 6SM -RA OVC035
     FM190700 35006KT P6SM -SHRA OVC015
     FM191200 31012G20KT 3SM -SN OVC010
     FM191700 31015G30KT 6SM -SN OVC015=

USA.gov is the U.S. government's official web portal to all federal, state and local government web resources and services.